Aviation Digital Data Service (ADDS)

Output produced by METARs form (0657 UTC 20 March 2019)
found at http://www.aviationweather.gov/metar/data/
 
METAR text: KLEX 200654Z 00000KT 10SM CLR 02/M04 A3029 RMK AO2 SLP260 T00171044
Conditions at: KLEX (LEXINGTON , KY, US) observed 0654 UTC 20 March 2019
Temperature: 1.7°C (35°F)
Dewpoint: -4.4°C (24°F) [RH = 64%]
Pressure (altimeter): 30.29 inches Hg (1025.8 mb)
[Sea-level pressure: 1026.0 mb]
Winds: calm
Visibility: 10 or more miles (16+ km)
Ceiling: at least 12,000 feet AGL
Clouds: sky clear below 12,000 feet AGL
Weather: no significant weather observed at this time

METAR text: KLEX 200554Z 00000KT 10SM CLR 03/M04 A3029 RMK AO2 SLP260 T00281044 10089 20028 58012
Conditions at: KLEX (LEXINGTON , KY, US) observed 0554 UTC 20 March 2019
Temperature: 2.8°C (37°F)
Dewpoint: -4.4°C (24°F) [RH = 59%]
Pressure (altimeter): 30.29 inches Hg (1025.8 mb)
[Sea-level pressure: 1026.0 mb]
Winds: calm
Visibility: 10 or more miles (16+ km)
Ceiling: at least 12,000 feet AGL
Clouds: sky clear below 12,000 feet AGL
Weather: no significant weather observed at this time

METAR text: KLEX 200454Z 00000KT 10SM CLR 03/M05 A3031 RMK AO2 SLP266 T00331050 401221044
Conditions at: KLEX (LEXINGTON , KY, US) observed 0454 UTC 20 March 2019
Temperature: 3.3°C (38°F)
Dewpoint: -5.0°C (23°F) [RH = 54%]
Pressure (altimeter): 30.31 inches Hg (1026.5 mb)
[Sea-level pressure: 1026.6 mb]
Winds: calm
Visibility: 10 or more miles (16+ km)
Ceiling: at least 12,000 feet AGL
Clouds: sky clear below 12,000 feet AGL
Weather: no significant weather observed at this time

METAR text: KLEX 200354Z 00000KT 10SM CLR 06/M06 A3032 RMK AO2 SLP270 T00561061
Conditions at: KLEX (LEXINGTON , KY, US) observed 0354 UTC 20 March 2019
Temperature: 5.6°C (42°F)
Dewpoint: -6.1°C (21°F) [RH = 43%]
Pressure (altimeter): 30.32 inches Hg (1026.8 mb)
[Sea-level pressure: 1027.0 mb]
Winds: calm
Visibility: 10 or more miles (16+ km)
Ceiling: at least 12,000 feet AGL
Clouds: sky clear below 12,000 feet AGL
Weather: no significant weather observed at this time

METAR text: KLEX 200254Z 00000KT 10SM CLR 06/M06 A3032 RMK AO2 SLP273 T00561056 56002
Conditions at: KLEX (LEXINGTON , KY, US) observed 0254 UTC 20 March 2019
Temperature: 5.6°C (42°F)
Dewpoint: -5.6°C (22°F) [RH = 44%]
Pressure (altimeter): 30.32 inches Hg (1026.8 mb)
[Sea-level pressure: 1027.3 mb]
Winds: calm
Visibility: 10 or more miles (16+ km)
Ceiling: at least 12,000 feet AGL
Clouds: sky clear below 12,000 feet AGL
Weather: no significant weather observed at this time

METAR text: KLEX 200154Z 34005KT 10SM CLR 07/M06 A3032 RMK AO2 SLP273 T00721061
Conditions at: KLEX (LEXINGTON , KY, US) observed 0154 UTC 20 March 2019
Temperature: 7.2°C (45°F)
Dewpoint: -6.1°C (21°F) [RH = 38%]
Pressure (altimeter): 30.32 inches Hg (1026.8 mb)
[Sea-level pressure: 1027.3 mb]
Winds: from the NNW (340 degrees) at 6 MPH (5 knots; 2.6 m/s)
Visibility: 10 or more miles (16+ km)
Ceiling: at least 12,000 feet AGL
Clouds: sky clear below 12,000 feet AGL
Weather: no significant weather observed at this time

METAR text: KLEX 200054Z 00000KT 10SM CLR 08/M06 A3033 RMK AO2 SLP276 T00781061
Conditions at: KLEX (LEXINGTON , KY, US) observed 0054 UTC 20 March 2019
Temperature: 7.8°C (46°F)
Dewpoint: -6.1°C (21°F) [RH = 37%]
Pressure (altimeter): 30.33 inches Hg (1027.2 mb)
[Sea-level pressure: 1027.6 mb]
Winds: calm
Visibility: 10 or more miles (16+ km)
Ceiling: at least 12,000 feet AGL
Clouds: sky clear below 12,000 feet AGL
Weather: no significant weather observed at this time

METAR text: KLEX 192354Z 05003KT 10SM CLR 09/M06 A3033 RMK AO2 SLP277 T00941061 10122 20094 56006
Conditions at: KLEX (LEXINGTON , KY, US) observed 2354 UTC 19 March 2019
Temperature: 9.4°C (49°F)
Dewpoint: -6.1°C (21°F) [RH = 33%]
Pressure (altimeter): 30.33 inches Hg (1027.2 mb)
[Sea-level pressure: 1027.7 mb]
Winds: from the NE (50 degrees) at 3 MPH (3 knots; 1.5 m/s)
Visibility: 10 or more miles (16+ km)
Ceiling: at least 12,000 feet AGL
Clouds: sky clear below 12,000 feet AGL
Weather: no significant weather observed at this time

METAR text: KLEX 192254Z 00000KT 10SM CLR 11/M07 A3033 RMK AO2 SLP276 T01061067
Conditions at: KLEX (LEXINGTON , KY, US) observed 2254 UTC 19 March 2019
Temperature: 10.6°C (51°F)
Dewpoint: -6.7°C (20°F) [RH = 29%]
Pressure (altimeter): 30.33 inches Hg (1027.2 mb)
[Sea-level pressure: 1027.6 mb]
Winds: calm
Visibility: 10 or more miles (16+ km)
Ceiling: at least 12,000 feet AGL
Clouds: sky clear below 12,000 feet AGL
Weather: no significant weather observed at this time

METAR text: KLEX 192154Z 00000KT 10SM CLR 11/M06 A3034 RMK AO2 SLP278 T01061061
Conditions at: KLEX (LEXINGTON , KY, US) observed 2154 UTC 19 March 2019
Temperature: 10.6°C (51°F)
Dewpoint: -6.1°C (21°F) [RH = 30%]
Pressure (altimeter): 30.34 inches Hg (1027.5 mb)
[Sea-level pressure: 1027.8 mb]
Winds: calm
Visibility: 10 or more miles (16+ km)
Ceiling: at least 12,000 feet AGL
Clouds: sky clear below 12,000 feet AGL
Weather: no significant weather observed at this time

METAR text: KLEX 192054Z 00000KT 10SM CLR 12/M06 A3035 RMK AO2 SLP281 T01171061 56023
Conditions at: KLEX (LEXINGTON , KY, US) observed 2054 UTC 19 March 2019
Temperature: 11.7°C (53°F)
Dewpoint: -6.1°C (21°F) [RH = 28%]
Pressure (altimeter): 30.35 inches Hg (1027.9 mb)
[Sea-level pressure: 1028.1 mb]
Winds: calm
Visibility: 10 or more miles (16+ km)
Ceiling: at least 12,000 feet AGL
Clouds: sky clear below 12,000 feet AGL
Weather: no significant weather observed at this time

METAR text: KLEX 191954Z 25006KT 10SM CLR 11/M06 A3036 RMK AO2 SLP285 T01111061
Conditions at: KLEX (LEXINGTON , KY, US) observed 1954 UTC 19 March 2019
Temperature: 11.1°C (52°F)
Dewpoint: -6.1°C (21°F) [RH = 29%]
Pressure (altimeter): 30.36 inches Hg (1028.2 mb)
[Sea-level pressure: 1028.5 mb]
Winds: from the WSW (250 degrees) at 7 MPH (6 knots; 3.1 m/s)
Visibility: 10 or more miles (16+ km)
Ceiling: at least 12,000 feet AGL
Clouds: sky clear below 12,000 feet AGL
Weather: no significant weather observed at this time

METAR text: KLEX 191854Z VRB04KT 10SM CLR 11/M06 A3039 RMK AO2 SLP294 T01061056
Conditions at: KLEX (LEXINGTON , KY, US) observed 1854 UTC 19 March 2019
Temperature: 10.6°C (51°F)
Dewpoint: -5.6°C (22°F) [RH = 32%]
Pressure (altimeter): 30.39 inches Hg (1029.2 mb)
[Sea-level pressure: 1029.4 mb]
Winds: variable direction winds at 5 MPH (4 knots; 2.1 m/s)
Visibility: 10 or more miles (16+ km)
Ceiling: at least 12,000 feet AGL
Clouds: sky clear below 12,000 feet AGL
Weather: no significant weather observed at this time

METAR text: KLEX 191754Z VRB04KT 10SM CLR 10/M06 A3042 RMK AO2 SLP305 T01001056 10111 21039 58013
Conditions at: KLEX (LEXINGTON , KY, US) observed 1754 UTC 19 March 2019
Temperature: 10.0°C (50°F)
Dewpoint: -5.6°C (22°F) [RH = 33%]
Pressure (altimeter): 30.42 inches Hg (1030.2 mb)
[Sea-level pressure: 1030.5 mb]
Winds: variable direction winds at 5 MPH (4 knots; 2.1 m/s)
Visibility: 10 or more miles (16+ km)
Ceiling: at least 12,000 feet AGL
Clouds: sky clear below 12,000 feet AGL
Weather: no significant weather observed at this time

METAR text: KLEX 191654Z 27008KT 10SM CLR 09/M06 A3044 RMK AO2 SLP313 T00941056
Conditions at: KLEX (LEXINGTON , KY, US) observed 1654 UTC 19 March 2019
Temperature: 9.4°C (49°F)
Dewpoint: -5.6°C (22°F) [RH = 34%]
Pressure (altimeter): 30.44 inches Hg (1030.9 mb)
[Sea-level pressure: 1031.3 mb]
Winds: from the W (270 degrees) at 9 MPH (8 knots; 4.1 m/s)
Visibility: 10 or more miles (16+ km)
Ceiling: at least 12,000 feet AGL
Clouds: sky clear below 12,000 feet AGL
Weather: no significant weather observed at this time

METAR text: KLEX 191554Z VRB05KT 10SM CLR 08/M04 A3046 RMK AO2 SLP318 T00831044
Conditions at: KLEX (LEXINGTON , KY, US) observed 1554 UTC 19 March 2019
Temperature: 8.3°C (47°F)
Dewpoint: -4.4°C (24°F) [RH = 40%]
Pressure (altimeter): 30.46 inches Hg (1031.6 mb)
[Sea-level pressure: 1031.8 mb]
Winds: variable direction winds at 6 MPH (5 knots; 2.6 m/s)
Visibility: 10 or more miles (16+ km)
Ceiling: at least 12,000 feet AGL
Clouds: sky clear below 12,000 feet AGL
Weather: no significant weather observed at this time

METAR text: KLEX 191454Z 21005KT 10SM CLR 07/M04 A3046 RMK AO2 SLP318 T00671039 51020
Conditions at: KLEX (LEXINGTON , KY, US) observed 1454 UTC 19 March 2019
Temperature: 6.7°C (44°F)
Dewpoint: -3.9°C (25°F) [RH = 47%]
Pressure (altimeter): 30.46 inches Hg (1031.6 mb)
[Sea-level pressure: 1031.8 mb]
Winds: from the SSW (210 degrees) at 6 MPH (5 knots; 2.6 m/s)
Visibility: 10 or more miles (16+ km)
Ceiling: at least 12,000 feet AGL
Clouds: sky clear below 12,000 feet AGL
Weather: no significant weather observed at this time

METAR text: KLEX 191354Z 19005KT 10SM CLR 03/M03 A3044 RMK AO2 SLP314 T00331028
Conditions at: KLEX (LEXINGTON , KY, US) observed 1354 UTC 19 March 2019
Temperature: 3.3°C (38°F)
Dewpoint: -2.8°C (27°F) [RH = 64%]
Pressure (altimeter): 30.44 inches Hg (1030.9 mb)
[Sea-level pressure: 1031.4 mb]
Winds: from the S (190 degrees) at 6 MPH (5 knots; 2.6 m/s)
Visibility: 10 or more miles (16+ km)
Ceiling: at least 12,000 feet AGL
Clouds: sky clear below 12,000 feet AGL
Weather: no significant weather observed at this time

METAR text: KLEX 191254Z 00000KT 10SM CLR M01/M04 A3042 RMK AO2 SLP308 T10111039
Conditions at: KLEX (LEXINGTON , KY, US) observed 1254 UTC 19 March 2019
Temperature: -1.1°C (30°F)
Dewpoint: -3.9°C (25°F) [RH = 81%]
Pressure (altimeter): 30.42 inches Hg (1030.2 mb)
[Sea-level pressure: 1030.8 mb]
Winds: calm
Visibility: 10 or more miles (16+ km)
Ceiling: at least 12,000 feet AGL
Clouds: sky clear below 12,000 feet AGL
Weather: no significant weather observed at this time

METAR text: KLEX 191154Z 00000KT 10SM CLR M03/M07 A3040 RMK AO2 SLP301 T10281072 10006 21044 53007
Conditions at: KLEX (LEXINGTON , KY, US) observed 1154 UTC 19 March 2019
Temperature: -2.8°C (27°F)
Dewpoint: -7.2°C (19°F) [RH = 72%]
Pressure (altimeter): 30.40 inches Hg (1029.5 mb)
[Sea-level pressure: 1030.1 mb]
Winds: calm
Visibility: 10 or more miles (16+ km)
Ceiling: at least 12,000 feet AGL
Clouds: sky clear below 12,000 feet AGL
Weather: no significant weather observed at this time

METAR text: KLEX 191054Z 00000KT 10SM CLR M01/M07 A3038 RMK AO2 SLP294 T10111067
Conditions at: KLEX (LEXINGTON , KY, US) observed 1054 UTC 19 March 2019
Temperature: -1.1°C (30°F)
Dewpoint: -6.7°C (20°F) [RH = 66%]
Pressure (altimeter): 30.38 inches Hg (1028.9 mb)
[Sea-level pressure: 1029.4 mb]
Winds: calm
Visibility: 10 or more miles (16+ km)
Ceiling: at least 12,000 feet AGL
Clouds: sky clear below 12,000 feet AGL
Weather: no significant weather observed at this time

METAR text: KLEX 190954Z 00000KT 10SM CLR M02/M07 A3038 RMK AO2 SLP293 T10221067
Conditions at: KLEX (LEXINGTON , KY, US) observed 0954 UTC 19 March 2019
Temperature: -2.2°C (28°F)
Dewpoint: -6.7°C (20°F) [RH = 71%]
Pressure (altimeter): 30.38 inches Hg (1028.9 mb)
[Sea-level pressure: 1029.3 mb]
Winds: calm
Visibility: 10 or more miles (16+ km)
Ceiling: at least 12,000 feet AGL
Clouds: sky clear below 12,000 feet AGL
Weather: no significant weather observed at this time

METAR text: KLEX 190854Z 00000KT 10SM CLR M01/M06 A3038 RMK AO2 SLP292 T10111061 55001
Conditions at: KLEX (LEXINGTON , KY, US) observed 0854 UTC 19 March 2019
Temperature: -1.1°C (30°F)
Dewpoint: -6.1°C (21°F) [RH = 69%]
Pressure (altimeter): 30.38 inches Hg (1028.9 mb)
[Sea-level pressure: 1029.2 mb]
Winds: calm
Visibility: 10 or more miles (16+ km)
Ceiling: at least 12,000 feet AGL
Clouds: sky clear below 12,000 feet AGL
Weather: no significant weather observed at this time

METAR text: KLEX 190754Z 00000KT 10SM CLR 01/M06 A3037 RMK AO2 SLP289 T00061061
Conditions at: KLEX (LEXINGTON , KY, US) observed 0754 UTC 19 March 2019
Temperature: 0.6°C (33°F)
Dewpoint: -6.1°C (21°F) [RH = 61%]
Pressure (altimeter): 30.37 inches Hg (1028.5 mb)
[Sea-level pressure: 1028.9 mb]
Winds: calm
Visibility: 10 or more miles (16+ km)
Ceiling: at least 12,000 feet AGL
Clouds: sky clear below 12,000 feet AGL
Weather: no significant weather observed at this time

METAR text: KLEX 190654Z 15005KT 10SM CLR M01/M05 A3037 RMK AO2 SLP291 T10061050
Conditions at: KLEX (LEXINGTON , KY, US) observed 0654 UTC 19 March 2019
Temperature: -0.6°C (31°F)
Dewpoint: -5.0°C (23°F) [RH = 72%]
Pressure (altimeter): 30.37 inches Hg (1028.5 mb)
[Sea-level pressure: 1029.1 mb]
Winds: from the SSE (150 degrees) at 6 MPH (5 knots; 2.6 m/s)
Visibility: 10 or more miles (16+ km)
Ceiling: at least 12,000 feet AGL
Clouds: sky clear below 12,000 feet AGL
Weather: no significant weather observed at this time

METAR text: KLEX 190554Z 00000KT 10SM CLR 01/M06 A3038 RMK AO2 SLP293 T00061056 10067 21011 58004
Conditions at: KLEX (LEXINGTON , KY, US) observed 0554 UTC 19 March 2019
Temperature: 0.6°C (33°F)
Dewpoint: -5.6°C (22°F) [RH = 63%]
Pressure (altimeter): 30.38 inches Hg (1028.9 mb)
[Sea-level pressure: 1029.3 mb]
Winds: calm
Visibility: 10 or more miles (16+ km)
Ceiling: at least 12,000 feet AGL
Clouds: sky clear below 12,000 feet AGL
Weather: no significant weather observed at this time

METAR text: KLEX 190454Z 00000KT 10SM CLR 00/M05 A3038 RMK AO2 SLP293 T00001050 401061028
Conditions at: KLEX (LEXINGTON , KY, US) observed 0454 UTC 19 March 2019
Temperature: 0.0°C (32°F)
Dewpoint: -5.0°C (23°F) [RH = 69%]
Pressure (altimeter): 30.38 inches Hg (1028.9 mb)
[Sea-level pressure: 1029.3 mb]
Winds: calm
Visibility: 10 or more miles (16+ km)
Ceiling: at least 12,000 feet AGL
Clouds: sky clear below 12,000 feet AGL
Weather: no significant weather observed at this time

METAR text: KLEX 190354Z AUTO 00000KT 10SM CLR 02/M06 A3039 RMK AO2 SLP298 T00221056
Conditions at: KLEX (LEXINGTON , KY, US) observed 0354 UTC 19 March 2019
Temperature: 2.2°C (36°F)
Dewpoint: -5.6°C (22°F) [RH = 56%]
Pressure (altimeter): 30.39 inches Hg (1029.2 mb)
[Sea-level pressure: 1029.8 mb]
Winds: calm
Visibility: 10 or more miles (16+ km)
Ceiling: at least 12,000 feet AGL
Clouds: sky clear below 12,000 feet AGL
Weather: automated observation with no human augmentation;
there may or may not be significant weather present at this time

METAR text: KLEX 190254Z 00000KT 10SM CLR 04/M07 A3039 RMK AO2 SLP296 T00391067 51008
Conditions at: KLEX (LEXINGTON , KY, US) observed 0254 UTC 19 March 2019
Temperature: 3.9°C (39°F)
Dewpoint: -6.7°C (20°F) [RH = 46%]
Pressure (altimeter): 30.39 inches Hg (1029.2 mb)
[Sea-level pressure: 1029.6 mb]
Winds: calm
Visibility: 10 or more miles (16+ km)
Ceiling: at least 12,000 feet AGL
Clouds: sky clear below 12,000 feet AGL
Weather: no significant weather observed at this time

METAR text: KLEX 190154Z 00000KT 10SM CLR 05/M06 A3038 RMK AO2 SLP294 T00501061
Conditions at: KLEX (LEXINGTON , KY, US) observed 0154 UTC 19 March 2019
Temperature: 5.0°C (41°F)
Dewpoint: -6.1°C (21°F) [RH = 44%]
Pressure (altimeter): 30.38 inches Hg (1028.9 mb)
[Sea-level pressure: 1029.4 mb]
Winds: calm
Visibility: 10 or more miles (16+ km)
Ceiling: at least 12,000 feet AGL
Clouds: sky clear below 12,000 feet AGL
Weather: no significant weather observed at this time

METAR text: KLEX 190054Z 00000KT 10SM SCT070 06/M07 A3038 RMK AO2 SLP294 T00611072
Conditions at: KLEX (LEXINGTON , KY, US) observed 0054 UTC 19 March 2019
Temperature: 6.1°C (43°F)
Dewpoint: -7.2°C (19°F) [RH = 38%]
Pressure (altimeter): 30.38 inches Hg (1028.9 mb)
[Sea-level pressure: 1029.4 mb]
Winds: calm
Visibility: 10 or more miles (16+ km)
Ceiling: at least 12,000 feet AGL
Clouds: scattered clouds at 7000 feet AGL
Weather: no significant weather observed at this time

METAR text: KLEX 182354Z 33003KT 10SM BKN075 07/M08 A3037 RMK AO2 SLP290 60000 T00671078 10106 20067 53013
Conditions at: KLEX (LEXINGTON , KY, US) observed 2354 UTC 18 March 2019
Temperature: 6.7°C (44°F)
Dewpoint: -7.8°C (18°F) [RH = 35%]
Pressure (altimeter): 30.37 inches Hg (1028.5 mb)
[Sea-level pressure: 1029.0 mb]
Winds: from the NNW (330 degrees) at 3 MPH (3 knots; 1.5 m/s)
Visibility: 10 or more miles (16+ km)
Ceiling: 7500 feet AGL
Clouds: broken clouds at 7500 feet AGL
Weather: no significant weather observed at this time

METAR text: KLEX 182254Z 32007KT 10SM OVC075 08/M07 A3034 RMK AO2 SLP282 T00781067
Conditions at: KLEX (LEXINGTON , KY, US) observed 2254 UTC 18 March 2019
Temperature: 7.8°C (46°F)
Dewpoint: -6.7°C (20°F) [RH = 35%]
Pressure (altimeter): 30.34 inches Hg (1027.5 mb)
[Sea-level pressure: 1028.2 mb]
Winds: from the NW (320 degrees) at 8 MPH (7 knots; 3.6 m/s)
Visibility: 10 or more miles (16+ km)
Ceiling: 7500 feet AGL
Clouds: overcast cloud deck at 7500 feet AGL
Weather: no significant weather observed at this time

METAR text: KLEX 182154Z 33006KT 10SM OVC070 08/M08 A3033 RMK AO2 RAB09E13 SLP277 P0000 T00831078
Conditions at: KLEX (LEXINGTON , KY, US) observed 2154 UTC 18 March 2019
Temperature: 8.3°C (47°F)
Dewpoint: -7.8°C (18°F) [RH = 31%]
Pressure (altimeter): 30.33 inches Hg (1027.2 mb)
[Sea-level pressure: 1027.7 mb]
Winds: from the NNW (330 degrees) at 7 MPH (6 knots; 3.1 m/s)
Visibility: 10 or more miles (16+ km)
Ceiling: 7000 feet AGL
Clouds: overcast cloud deck at 7000 feet AGL
Weather: no significant weather observed at this time

METAR text: KLEX 182054Z 32007KT 10SM OVC065 10/M07 A3033 RMK AO2 SLP274 T01001072 56018
Conditions at: KLEX (LEXINGTON , KY, US) observed 2054 UTC 18 March 2019
Temperature: 10.0°C (50°F)
Dewpoint: -7.2°C (19°F) [RH = 29%]
Pressure (altimeter): 30.33 inches Hg (1027.2 mb)
[Sea-level pressure: 1027.4 mb]
Winds: from the NW (320 degrees) at 8 MPH (7 knots; 3.6 m/s)
Visibility: 10 or more miles (16+ km)
Ceiling: 6500 feet AGL
Clouds: overcast cloud deck at 6500 feet AGL
Weather: no significant weather observed at this time

METAR text: KLEX 181954Z 33008KT 10SM CLR 09/M07 A3034 RMK AO2 SLP280 T00891072
Conditions at: KLEX (LEXINGTON , KY, US) observed 1954 UTC 18 March 2019
Temperature: 8.9°C (48°F)
Dewpoint: -7.2°C (19°F) [RH = 31%]
Pressure (altimeter): 30.34 inches Hg (1027.5 mb)
[Sea-level pressure: 1028.0 mb]
Winds: from the NNW (330 degrees) at 9 MPH (8 knots; 4.1 m/s)
Visibility: 10 or more miles (16+ km)
Ceiling: at least 12,000 feet AGL
Clouds: sky clear below 12,000 feet AGL
Weather: no significant weather observed at this time

Forecast for: KLEX (LEXINGTON , KY, US)
Text: KLEX 200539Z 2006/2106 VRB03KT P6SM BKN250
Forecast period: 0600 to 1600 UTC 20 March 2019
Forecast type: FROM: standard forecast or significant change
Winds: variable direction winds at 3 MPH (3 knots; 1.5 m/s)
Visibility: 6 or more miles 10+ km)
Ceiling: 25000 feet AGL
Clouds: broken clouds at 25000 feet AGL
Weather: no significant weather forecast for this period
Text: FM201600 20012KT P6SM BKN150
Forecast period: 1600 to 2200 UTC 20 March 2019
Forecast type: FROM: standard forecast or significant change
Winds: from the SSW (200 degrees) at 14 MPH (12 knots; 6.2 m/s)
Visibility: 6 or more miles 10+ km)
Ceiling: 15000 feet AGL
Clouds: broken clouds at 15000 feet AGL
Weather: no significant weather forecast for this period
Text: FM202200 21006KT P6SM SCT050 BKN100
Forecast period: 2200 UTC 20 March 2019 to 0500 UTC 21 March 2019
Forecast type: FROM: standard forecast or significant change
Winds: from the SSW (210 degrees) at 7 MPH (6 knots; 3.1 m/s)
Visibility: 6 or more miles 10+ km)
Ceiling: 10000 feet AGL
Clouds: scattered clouds at 5000 feet AGL
broken clouds at 10000 feet AGL
Weather: no significant weather forecast for this period
Text: FM210500 21005KT P6SM OVC035
Forecast period: 0500 to 0600 UTC 21 March 2019
Forecast type: FROM: standard forecast or significant change
Winds: from the SSW (210 degrees) at 6 MPH (5 knots; 2.6 m/s)
Visibility: 6 or more miles 10+ km)
Ceiling: 3500 feet AGL
Clouds: overcast cloud deck at 3500 feet AGL
Weather: no significant weather forecast for this period